CheckWX is a tool to help pilots better visualize weather data.  It is not intended as a substitute for an official pre-flight weather briefing.

00:45:42 UTC

KLOZ TAF
London-Corbin Arpt-Magee Field Airport
London, Kentucky, USA
KLOZ 162326Z 1700/1724 VRB04KT P6SM SCT100 FM171000 00000KT 4SM BR SCT010 FM171400 VRB03KT P6SM FEW050

Sep-17@
00:00 UTC

Sep-17 @ 00:00 UTC

Sep-17@
10:00 UTC

Sep-17 @ 10:00 UTC

KLOZ 162326Z 1700/1724 VRB04KT P6SM SCT100
Wind
  • Variable at 4 KTS
Cloud Levels
  • Scattered at 10,000' AGL

Sep-17@
10:00 UTC

Sep-17 @ 10:00 UTC

Sep-17@
14:00 UTC

Sep-17 @ 14:00 UTC

FM171000 00000KT 4SM BR SCT010

From

From Standard forecast or significant change

Conditions
Mist
Cloud Levels
  • Scattered at 1,000' AGL

Sep-17@
14:00 UTC

Sep-17 @ 14:00 UTC

Sep-18@
00:00 UTC

Sep-18 @ 00:00 UTC

FM171400 VRB03KT P6SM FEW050

From

From Standard forecast or significant change

Wind
  • Variable at 3 KTS
Cloud Levels
  • Few at 5,000' AGL